Time;durP1;ratioP1;P1;durP2;ratioP2;P2;SDS_P1;SDS_P2;PMS_P1;PMS_P2;Temp;Humidity;BMP_temperature;BMP_pressure;BME280_temperature;BME280_humidity;BME280_pressure;Samples;Min_cycle;Max_cycle;Signal;HPM_P1;HPM_P2
2023/08/09 00:00:36;;;;;;;2.60;1.80;;;;;;;15.72;100.00;101121.94;5112886;28;20051;-67
2023/08/09 00:03:05;;;;;;;1.70;1.60;;;;;;;15.70;100.00;101116.72;5114203;28;20102;-66
2023/08/09 00:05:33;;;;;;;3.35;2.10;;;;;;;15.71;100.00;101125.81;5113262;28;20043;-66
2023/08/09 00:08:00;;;;;;;2.60;1.88;;;;;;;15.69;100.00;101128.00;5114614;28;20093;-66
2023/08/09 00:10:28;;;;;;;3.30;2.10;;;;;;;15.67;100.00;101136.53;5112010;28;20118;-66
2023/08/09 00:12:56;;;;;;;2.83;2.13;;;;;;;15.68;100.00;101138.19;5112593;28;20491;-66
2023/08/09 00:15:24;;;;;;;2.42;1.83;;;;;;;15.66;100.00;101123.91;5114104;28;20051;-67
2023/08/09 00:17:51;;;;;;;2.85;1.90;;;;;;;15.66;100.00;101118.41;5112550;28;20047;-66
2023/08/09 00:20:22;;;;;;;1.77;1.67;;;;;;;15.67;100.00;101122.78;5100896;28;20255;-66
2023/08/09 00:22:50;;;;;;;4.10;1.98;;;;;;;15.67;100.00;101120.03;5114270;28;20048;-69
2023/08/09 00:25:18;;;;;;;2.45;1.80;;;;;;;15.67;100.00;101113.72;5112758;28;20043;-65
2023/08/09 00:27:46;;;;;;;2.75;2.03;;;;;;;15.67;100.00;101114.53;5113753;28;20047;-66
2023/08/09 00:30:14;;;;;;;3.70;1.80;;;;;;;15.68;100.00;101116.19;5077928;28;20051;-66
2023/08/09 00:32:42;;;;;;;2.92;1.83;;;;;;;15.68;100.00;101116.19;5079934;28;20048;-66
2023/08/09 00:35:10;;;;;;;3.90;2.03;;;;;;;15.70;100.00;101124.16;5098707;28;20040;-66
2023/08/09 00:37:39;;;;;;;3.03;1.90;;;;;;;15.68;100.00;101127.19;5124062;28;20071;-64
2023/08/09 00:40:07;;;;;;;2.45;2.20;;;;;;;15.68;100.00;101127.19;5126000;28;20052;-68
2023/08/09 00:42:35;;;;;;;2.30;2.00;;;;;;;15.68;100.00;101121.69;5134142;28;20071;-64
2023/08/09 00:45:04;;;;;;;2.47;2.00;;;;;;;15.69;100.00;101122.50;5118781;28;20132;-65
2023/08/09 00:47:34;;;;;;;3.92;2.50;;;;;;;15.69;100.00;101134.31;5135252;28;20039;-62
2023/08/09 00:50:03;;;;;;;2.85;1.90;;;;;;;15.69;100.00;101128.00;5121088;28;20575;-62
2023/08/09 00:52:31;;;;;;;3.75;2.20;;;;;;;15.68;100.00;101127.19;5109205;28;20048;-62
2023/08/09 00:55:01;;;;;;;2.80;1.95;;;;;;;15.70;100.00;101129.66;5102749;28;20048;-61
2023/08/09 00:57:30;;;;;;;3.10;2.13;;;;;;;15.70;100.00;101129.66;5120138;28;20044;-60
2023/08/09 00:59:58;;;;;;;2.60;2.40;;;;;;;15.68;100.00;101138.19;5107287;28;20049;-65
2023/08/09 01:02:26;;;;;;;2.65;1.98;;;;;;;15.66;100.00;101145.06;5115545;28;20054;-63
2023/08/09 01:04:54;;;;;;;3.28;2.40;;;;;;;15.63;100.00;101151.13;5133060;27;20043;-65
2023/08/09 01:07:52;;;;;;;3.72;2.40;;;;;;;15.59;100.00;101150.91;5117663;28;20044;-67
2023/08/09 01:10:57;;;;;;;4.25;2.35;;;;;;;15.58;100.00;101149.28;5030411;28;20060;-67
2023/08/09 01:13:26;;;;;;;2.40;2.17;;;;;;;15.57;100.00;101142.16;5104854;28;20056;-66
2023/08/09 01:15:54;;;;;;;2.97;2.33;;;;;;;15.56;100.00;101143.25;5116354;28;20051;-66
2023/08/09 01:18:23;;;;;;;3.35;2.33;;;;;;;15.53;100.00;101152.91;5082515;28;20456;-64
2023/08/09 01:20:52;;;;;;;3.50;2.30;;;;;;;15.51;100.00;101157.88;5116148;28;20043;-65
2023/08/09 01:23:20;;;;;;;4.88;2.70;;;;;;;15.50;100.00;101152.69;5095280;28;20104;-66
2023/08/09 01:25:48;;;;;;;1.95;1.85;;;;;;;15.47;100.00;101145.84;5105794;28;20051;-66
2023/08/09 01:28:16;;;;;;;3.05;2.15;;;;;;;15.49;100.00;101145.53;5078535;28;20549;-66
2023/08/09 01:30:45;;;;;;;2.58;2.13;;;;;;;15.48;100.00;101147.47;5078671;28;20047;-66
2023/08/09 01:33:14;;;;;;;2.40;2.20;;;;;;;15.48;100.00;101146.66;5103336;28;20043;-66
2023/08/09 01:35:53;;;;;;;2.33;2.08;;;;;;;15.48;100.00;101149.41;5114709;28;20419;-65
2023/08/09 01:38:24;;;;;;;3.20;2.30;;;;;;;15.49;100.00;101162.00;5085755;28;20396;-67
2023/08/09 01:40:52;;;;;;;3.50;2.17;;;;;;;15.49;100.00;101157.34;5078023;28;20056;-67
2023/08/09 01:43:22;;;;;;;2.45;2.17;;;;;;;15.48;100.00;101154.91;5109853;28;20055;-67
2023/08/09 01:45:50;;;;;;;3.08;2.10;;;;;;;15.46;100.00;101162.59;5099573;28;20403;-66
2023/08/09 01:48:18;;;;;;;3.10;2.20;;;;;;;15.42;100.00;101161.56;5115945;28;20055;-67
2023/08/09 01:50:46;;;;;;;3.13;2.30;;;;;;;15.40;100.00;101152.81;5114612;28;20096;-67
2023/08/09 01:53:13;;;;;;;3.25;2.30;;;;;;;15.39;100.00;101160.19;5097419;28;20047;-67
2023/08/09 01:55:41;;;;;;;3.85;2.03;;;;;;;15.39;100.00;101162.94;5099268;28;20066;-67
2023/08/09 01:58:09;;;;;;;6.07;2.05;;;;;;;15.40;100.00;101159.09;5077777;28;20495;-67
2023/08/09 02:00:37;;;;;;;3.60;2.22;;;;;;;15.41;100.00;101168.16;5111189;28;20056;-67
2023/08/09 02:03:06;;;;;;;3.22;2.45;;;;;;;15.42;100.00;101172.56;5109267;28;20070;-66
2023/08/09 02:05:38;;;;;;;2.42;2.22;;;;;;;15.42;100.00;101170.63;5113818;28;20103;-66
2023/08/09 02:08:07;;;;;;;5.60;2.35;;;;;;;15.43;100.00;101179.66;5100397;28;20054;-66
2023/08/09 02:10:35;;;;;;;3.92;2.35;;;;;;;15.40;100.00;101177.50;5117068;28;20064;-66
2023/08/09 02:13:03;;;;;;;3.03;2.13;;;;;;;15.37;100.00;101181.66;5119174;28;20122;-66
2023/08/09 02:15:32;;;;;;;2.70;1.92;;;;;;;15.32;100.00;101179.78;5119963;28;20106;-65
2023/08/09 02:18:00;;;;;;;4.07;2.28;;;;;;;15.29;100.00;101180.34;5084596;28;20047;-66
2023/08/09 02:20:29;;;;;;;3.28;2.28;;;;;;;15.27;100.00;101176.25;5115018;28;20043;-66
2023/08/09 02:22:58;;;;;;;3.10;2.20;;;;;;;15.27;100.00;101171.63;5114900;28;20046;-64
2023/08/09 02:25:26;;;;;;;3.58;2.42;;;;;;;15.28;100.00;101184.22;5113623;28;20039;-66
2023/08/09 02:27:54;;;;;;;3.85;2.40;;;;;;;15.29;100.00;101187.78;5115876;28;20108;-66
2023/08/09 02:30:22;;;;;;;2.80;2.17;;;;;;;15.27;100.00;101177.09;5115687;28;20043;-65
2023/08/09 02:32:51;;;;;;;2.40;2.15;;;;;;;15.25;100.00;101179.31;5114739;28;20058;-66
2023/08/09 02:35:20;;;;;;;4.20;2.35;;;;;;;15.25;100.00;101184.81;5114409;28;20047;-65
2023/08/09 02:37:49;;;;;;;3.03;2.20;;;;;;;15.25;100.00;101189.47;5113355;28;20085;-65
2023/08/09 02:40:18;;;;;;;3.05;2.53;;;;;;;15.23;100.00;101187.03;5114386;28;20070;-66
2023/08/09 02:42:46;;;;;;;3.50;2.30;;;;;;;15.23;100.00;101187.03;5114192;28;20062;-67
2023/08/09 02:45:14;;;;;;;3.10;2.35;;;;;;;15.23;100.00;101198.00;5096886;28;20104;-66
2023/08/09 02:47:42;;;;;;;4.55;2.72;;;;;;;15.21;100.00;101205.69;5112725;28;20058;-68
2023/08/09 02:50:10;;;;;;;7.18;2.60;;;;;;;15.19;100.00;101213.41;5094742;28;20040;-66
2023/08/09 02:52:38;;;;;;;5.43;2.60;;;;;;;15.18;100.00;101214.53;5105495;28;20059;-66
2023/08/09 02:55:06;;;;;;;3.53;2.40;;;;;;;15.15;100.00;101212.34;5114028;28;20044;-67
2023/08/09 02:57:34;;;;;;;3.33;2.42;;;;;;;15.13;100.00;101211.84;5113052;28;20036;-67
2023/08/09 03:00:04;;;;;;;3.50;2.50;;;;;;;15.12;100.00;101215.66;5097136;28;20058;-66
2023/08/09 03:02:31;;;;;;;4.22;2.47;;;;;;;15.09;100.00;101208.03;5096049;28;20488;-64
2023/08/09 03:05:00;;;;;;;5.88;2.50;;;;;;;15.07;100.00;101210.22;5113699;28;20048;-66
2023/08/09 03:07:28;;;;;;;5.00;2.25;;;;;;;15.04;100.00;101211.63;5095733;28;20073;-66
2023/08/09 03:09:56;;;;;;;3.75;2.67;;;;;;;15.03;100.00;101222.88;5112257;28;20046;-65
2023/08/09 03:12:23;;;;;;;3.63;2.47;;;;;;;15.00;100.00;101216.03;5093178;28;20044;-66
2023/08/09 03:14:51;;;;;;;3.38;2.72;;;;;;;14.99;100.00;101224.59;5076588;28;20044;-65
2023/08/09 03:17:19;;;;;;;3.53;3.00;;;;;;;14.96;100.00;101230.63;5076232;28;20092;-67
2023/08/09 03:19:47;;;;;;;4.00;2.85;;;;;;;14.95;100.00;101223.50;5111449;28;20051;-65
2023/08/09 03:22:14;;;;;;;3.95;3.03;;;;;;;14.94;100.00;101227.38;5092817;28;20512;-65
2023/08/09 03:24:42;;;;;;;7.57;2.80;;;;;;;14.96;100.00;101225.13;5092680;28;20389;-66
2023/08/09 03:27:10;;;;;;;3.95;2.70;;;;;;;14.93;100.00;101228.47;5093027;28;20044;-66
2023/08/09 03:29:38;;;;;;;4.22;3.00;;;;;;;14.94;100.00;101238.34;5105157;28;20047;-67
2023/08/09 03:32:07;;;;;;;5.10;3.53;;;;;;;14.94;100.00;101233.69;5113012;28;20422;-67
2023/08/09 03:34:35;;;;;;;6.63;4.18;;;;;;;14.93;100.00;101236.69;5112705;28;20040;-65
2023/08/09 03:37:04;;;;;;;6.43;4.65;;;;;;;14.91;100.00;101229.59;5113177;28;20047;-67
2023/08/09 03:39:32;;;;;;;6.93;4.53;;;;;;;14.90;100.00;101238.91;5110864;28;20381;-66
2023/08/09 03:42:00;;;;;;;7.05;4.80;;;;;;;14.89;100.00;101237.28;5108304;28;20047;-65
2023/08/09 03:44:28;;;;;;;5.97;4.30;;;;;;;14.88;100.00;101251.28;5113875;28;20051;-66
2023/08/09 03:46:56;;;;;;;6.82;4.60;;;;;;;14.85;100.00;101252.66;5114316;28;20088;-66
2023/08/09 03:49:24;;;;;;;5.65;3.90;;;;;;;14.83;100.00;101256.81;5112627;28;20054;-67
2023/08/09 03:51:52;;;;;;;5.07;4.00;;;;;;;14.81;100.00;101262.56;5099800;28;20040;-65
2023/08/09 03:54:20;;;;;;;4.20;3.28;;;;;;;14.79;100.00;101264.81;5093002;28;20397;-68
2023/08/09 03:56:48;;;;;;;6.43;3.47;;;;;;;14.78;100.00;101259.59;5093929;28;20048;-66
2023/08/09 03:59:16;;;;;;;4.07;2.90;;;;;;;14.77;100.00;101261.53;5092538;28;20048;-67
2023/08/09 04:01:44;;;;;;;4.70;2.90;;;;;;;14.77;100.00;101261.53;5108355;28;20047;-66
2023/08/09 04:04:11;;;;;;;4.45;2.95;;;;;;;14.78;100.00;101267.81;5095930;28;20042;-67
2023/08/09 04:06:39;;;;;;;4.78;2.90;;;;;;;14.77;100.00;101271.66;5092415;28;20044;-66
2023/08/09 04:09:08;;;;;;;4.40;3.10;;;;;;;14.75;100.00;101269.22;5093426;28;20052;-67
2023/08/09 04:11:36;;;;;;;5.82;2.88;;;;;;;14.76;100.00;101273.56;5104727;28;20056;-67
2023/08/09 04:14:04;;;;;;;3.78;2.80;;;;;;;14.75;100.00;101269.22;5077182;28;20044;-68
2023/08/09 04:16:33;;;;;;;6.13;2.70;;;;;;;14.76;100.00;101281.81;5119760;28;20047;-67
2023/08/09 04:19:02;;;;;;;4.40;2.75;;;;;;;14.77;100.00;101274.38;5123256;28;20048;-66
2023/08/09 04:21:33;;;;;;;4.00;2.67;;;;;;;14.78;100.00;101282.34;5099709;28;20047;-67
2023/08/09 04:24:01;;;;;;;3.85;2.72;;;;;;;14.78;100.00;101279.59;5117146;28;20511;-68
2023/08/09 04:26:29;;;;;;;5.80;2.80;;;;;;;14.76;100.00;101276.31;5117120;28;20043;-67
2023/08/09 04:28:57;;;;;;;4.43;2.90;;;;;;;14.76;100.00;101276.31;5117661;28;20456;-67
2023/08/09 04:31:25;;;;;;;4.45;3.10;;;;;;;14.77;100.00;101282.63;5116325;28;20044;-69
2023/08/09 04:33:53;;;;;;;5.50;3.50;;;;;;;14.76;100.00;101287.28;5117385;28;20096;-67
2023/08/09 04:36:21;;;;;;;4.90;3.20;;;;;;;14.76;100.00;101284.56;5118030;28;20052;-67
2023/08/09 04:38:49;;;;;;;5.60;3.22;;;;;;;14.75;100.00;101285.66;5116375;28;20488;-66
2023/08/09 04:41:16;;;;;;;4.53;3.15;;;;;;;14.75;100.00;101285.66;5116198;28;20395;-67
2023/08/09 04:43:46;;;;;;;4.90;2.88;;;;;;;14.77;100.00;101285.38;5114410;28;20035;-67
2023/08/09 04:46:14;;;;;;;3.88;3.20;;;;;;;14.80;100.00;101290.31;5116617;28;20039;-67
2023/08/09 04:48:42;;;;;;;4.68;3.25;;;;;;;14.81;100.00;101292.75;5118003;28;20051;-67
2023/08/09 04:51:10;;;;;;;4.45;2.92;;;;;;;14.82;100.00;101302.63;5115530;28;20055;-67
2023/08/09 04:53:38;;;;;;;5.38;3.20;;;;;;;14.83;100.00;101303.44;5094906;28;20043;-67
2023/08/09 04:56:06;;;;;;;4.13;3.10;;;;;;;14.83;100.00;101307.00;5098482;28;20052;-67
2023/08/09 04:58:34;;;;;;;3.90;3.03;;;;;;;14.85;100.00;101290.25;5062824;28;20040;-66
2023/08/09 05:01:01;;;;;;;3.38;2.75;;;;;;;14.86;100.00;101298.22;5079207;28;20051;-67
2023/08/09 05:03:29;;;;;;;4.18;3.05;;;;;;;14.87;100.00;101302.59;5112397;28;20153;-67
2023/08/09 05:05:57;;;;;;;5.20;3.30;;;;;;;14.87;100.00;101304.53;5099528;28;20052;-66
2023/08/09 05:08:25;;;;;;;4.15;3.28;;;;;;;14.87;100.00;101315.50;5118632;28;20400;-67
2023/08/09 05:10:52;;;;;;;4.90;3.15;;;;;;;14.86;100.00;101314.69;5136137;28;20044;-63
2023/08/09 05:13:20;;;;;;;4.03;2.90;;;;;;;14.85;100.00;101313.03;5140579;28;20074;-63
2023/08/09 05:15:48;;;;;;;4.88;3.33;;;;;;;14.84;100.00;101316.88;5126622;28;20108;-67
2023/08/09 05:18:16;;;;;;;6.70;3.63;;;;;;;14.85;100.00;101329.47;5118289;28;20040;-66
2023/08/09 05:20:44;;;;;;;4.18;3.30;;;;;;;14.85;100.00;101323.19;5115316;28;20039;-60
2023/08/09 05:23:11;;;;;;;8.63;4.32;;;;;;;14.85;100.00;101318.50;5136529;28;20049;-59
2023/08/09 05:25:40;;;;;;;7.00;4.35;;;;;;;14.85;100.00;101321.25;5125117;28;20153;-66
2023/08/09 05:28:09;;;;;;;4.82;3.53;;;;;;;14.85;100.00;101321.25;5116137;28;20096;-64
2023/08/09 05:30:37;;;;;;;5.47;3.58;;;;;;;14.87;100.00;101326.47;5116252;28;20487;-66
2023/08/09 05:33:05;;;;;;;6.15;3.30;;;;;;;14.89;100.00;101325.06;5111938;28;20054;-67
2023/08/09 05:35:33;;;;;;;4.38;3.58;;;;;;;14.89;100.00;101333.31;5106548;28;20044;-66
2023/08/09 05:38:00;;;;;;;7.03;3.58;;;;;;;14.90;100.00;101331.38;5116516;28;20101;-66
2023/08/09 05:40:28;;;;;;;9.98;4.10;;;;;;;14.91;100.00;101333.00;5115391;28;20056;-66
2023/08/09 05:42:56;;;;;;;7.30;4.15;;;;;;;14.94;100.00;101339.88;5116339;28;20055;-66
2023/08/09 05:45:24;;;;;;;7.40;3.70;;;;;;;14.95;100.00;101327.78;5114098;28;20052;-67
2023/08/09 05:47:51;;;;;;;6.78;3.95;;;;;;;14.99;100.00;101331.59;5116292;28;20403;-67
2023/08/09 05:50:19;;;;;;;7.35;4.47;;;;;;;15.03;100.00;101335.41;5115641;28;20062;-66
2023/08/09 05:52:50;;;;;;;7.00;4.60;;;;;;;15.05;100.00;101339.50;4873372;28;10000518;-67
2023/08/09 05:55:18;;;;;;;12.95;5.63;;;;;;;15.06;100.00;101345.81;4741513;28;10000655;-67
2023/08/09 05:57:45;;;;;;;8.93;5.70;;;;;;;15.08;100.00;101349.06;5110928;28;20052;-67
2023/08/09 06:00:15;;;;;;;9.68;5.47;;;;;;;15.09;100.00;101345.25;5111524;28;20487;-66
2023/08/09 06:02:45;;;;;;;8.82;5.18;;;;;;;15.09;100.00;101340.56;5105193;28;20044;-66
2023/08/09 06:05:19;;;;;;;9.80;5.30;;;;;;;15.11;100.00;101340.28;5090536;28;20051;-67
2023/08/09 06:07:47;;;;;;;8.73;5.63;;;;;;;15.12;100.00;101345.47;5104598;28;20148;-66
2023/08/09 06:10:14;;;;;;;8.43;5.97;;;;;;;15.13;100.00;101349.06;5110976;28;20051;-67
2023/08/09 06:13:00;;;;;;;9.30;5.70;;;;;;;15.14;100.00;101353.44;5111496;28;20480;-68
2023/08/09 06:15:27;;;;;;;10.82;6.28;;;;;;;15.15;100.00;101363.31;5113421;28;20172;-68
2023/08/09 06:17:56;;;;;;;12.98;7.10;;;;;;;15.14;100.00;101361.69;5111251;28;20392;-67
2023/08/09 06:20:27;;;;;;;8.65;5.95;;;;;;;15.11;100.00;101365.81;5102928;28;20056;-67
2023/08/09 06:22:55;;;;;;;10.40;6.88;;;;;;;15.10;100.00;101366.94;5113673;28;20043;-67
2023/08/09 06:25:23;;;;;;;9.13;6.68;;;;;;;15.10;100.00;101374.31;5112365;28;20055;-67
2023/08/09 06:27:51;;;;;;;12.30;6.85;;;;;;;15.12;100.00;101388.59;5112528;28;20047;-66
2023/08/09 06:30:19;;;;;;;10.15;6.95;;;;;;;15.12;100.00;101372.94;5109345;28;20500;-66
2023/08/09 06:32:48;;;;;;;11.25;8.73;;;;;;;15.16;100.00;101386.91;5114728;28;20048;-66
2023/08/09 06:35:16;;;;;;;11.73;8.05;;;;;;;15.16;100.00;101392.41;5114139;28;20051;-65
2023/08/09 06:37:45;;;;;;;11.05;8.27;;;;;;;15.17;100.00;101394.03;5097050;28;20043;-66
2023/08/09 06:40:15;;;;;;;12.02;9.32;;;;;;;15.19;100.00;101391.84;5115320;28;20517;-67
2023/08/09 06:42:44;;;;;;;12.20;9.20;;;;;;;15.21;100.00;101389.63;5113812;28;20051;-66
2023/08/09 06:45:16;;;;;;;9.25;7.22;;;;;;;15.24;100.00;101397.28;5098415;28;20051;-65
2023/08/09 06:47:43;;;;;;;11.98;9.85;;;;;;;15.26;100.00;101397.00;5113906;28;20052;-65
2023/08/09 06:50:11;;;;;;;13.82;10.35;;;;;;;15.24;100.00;101397.28;5114503;28;20044;-66
2023/08/09 06:52:39;;;;;;;14.13;9.85;;;;;;;15.25;100.00;101398.94;5113650;28;20423;-66
2023/08/09 06:55:08;;;;;;;13.80;9.93;;;;;;;15.27;100.00;101402.22;5080846;28;20059;-65
2023/08/09 06:57:36;;;;;;;13.90;9.93;;;;;;;15.30;100.00;101414.56;5114044;28;20051;-66
2023/08/09 07:00:05;;;;;;;15.80;9.68;;;;;;;15.32;100.00;101415.91;5112727;28;20438;-64
2023/08/09 07:02:33;;;;;;;12.40;8.85;;;;;;;15.33;100.00;101423.03;5114152;28;20095;-65
2023/08/09 07:05:15;;;;;;;12.07;8.73;;;;;;;15.36;100.00;101415.34;5097889;28;20091;-65
2023/08/09 07:07:44;;;;;;;13.50;8.98;;;;;;;15.38;100.00;101413.13;5071362;28;20051;-66
2023/08/09 07:10:13;;;;;;;19.40;11.57;;;;;;;15.41;100.00;101418.84;5086267;28;20048;-65
2023/08/09 07:12:42;;;;;;;13.98;11.20;;;;;;;15.43;100.00;101421.31;5097153;28;20047;-66
2023/08/09 07:15:11;;;;;;;14.57;11.32;;;;;;;15.43;100.00;101426.81;5111782;28;20506;-67
2023/08/09 07:17:39;;;;;;;14.30;10.65;;;;;;;15.43;100.00;101427.63;5096634;28;20055;-65
2023/08/09 07:20:11;;;;;;;10.73;8.23;;;;;;;15.45;100.00;101430.09;5112293;28;20043;-66
2023/08/09 07:22:39;;;;;;;15.35;10.27;;;;;;;15.48;100.00;101426.78;5094900;28;20519;-64
2023/08/09 07:25:08;;;;;;;14.32;10.95;;;;;;;15.51;100.00;101417.94;5113526;28;20051;-66
2023/08/09 07:27:44;;;;;;;14.93;11.30;;;;;;;15.52;100.00;101425.09;5112915;28;20104;-65
2023/08/09 07:30:14;;;;;;;14.63;11.52;;;;;;;15.54;100.00;101425.63;5111471;28;20044;-66
2023/08/09 07:32:42;;;;;;;14.30;11.82;;;;;;;15.57;100.00;101427.81;5114920;28;20047;-66
2023/08/09 07:35:11;;;;;;;15.10;11.40;;;;;;;15.57;100.00;101433.31;5115044;28;20039;-65
2023/08/09 07:37:41;;;;;;;15.07;11.68;;;;;;;15.57;100.00;101433.31;5115928;28;20055;-67
2023/08/09 07:40:12;;;;;;;16.25;12.50;;;;;;;15.57;100.00;101427.81;5115873;28;20046;-65
2023/08/09 07:42:41;;;;;;;16.92;12.75;;;;;;;15.57;100.00;101427.81;5117391;28;20100;-65
2023/08/09 07:45:10;;;;;;;24.05;13.70;;;;;;;15.60;100.00;101445.63;5099193;28;20044;-65
2023/08/09 07:47:39;;;;;;;16.60;12.57;;;;;;;15.61;100.00;101445.38;5118976;28;20048;-67
2023/08/09 07:50:07;;;;;;;17.15;13.88;;;;;;;15.61;100.00;101450.84;5118100;28;20126;-67
2023/08/09 07:52:35;;;;;;;19.58;14.73;;;;;;;15.64;100.00;101449.47;5123294;28;20096;-68
2023/08/09 07:55:05;;;;;;;18.23;13.98;;;;;;;15.64;100.00;101450.28;5103119;28;20054;-65
2023/08/09 07:57:33;;;;;;;15.93;11.15;;;;;;;15.66;100.00;101452.75;5117432;28;20503;-66
2023/08/09 08:00:11;;;;;;;14.95;10.23;;;;;;;15.69;100.00;101452.97;5098125;28;20044;-65
2023/08/09 08:02:59;;;;;;;18.13;11.35;;;;;;;15.75;100.00;101457.38;5117039;28;20044;-66
2023/08/09 08:05:28;;;;;;;13.07;7.80;;;;;;;15.81;100.00;101451.81;5115782;28;20402;-66
2023/08/09 08:07:55;;;;;;;16.15;10.95;;;;;;;15.83;100.00;101464.16;5099312;28;20122;-68
2023/08/09 08:10:23;;;;;;;15.38;11.50;;;;;;;15.87;100.00;101458.91;5114280;28;20063;-66
2023/08/09 08:12:51;;;;;;;16.63;12.27;;;;;;;15.88;100.00;101464.13;5113611;28;20047;-66
2023/08/09 08:15:20;;;;;;;15.45;11.00;;;;;;;15.92;100.00;101469.84;5113979;28;20047;-67
2023/08/09 08:17:51;;;;;;;13.25;8.27;;;;;;;15.95;100.00;101466.53;5113192;28;20035;-66
2023/08/09 08:20:20;;;;;;;12.63;7.95;;;;;;;16.02;100.00;101472.53;5113224;28;20039;-65
2023/08/09 08:22:49;;;;;;;13.18;6.93;;;;;;;16.03;100.00;101465.91;5111792;28;20047;-65
2023/08/09 08:25:19;;;;;;;12.63;8.15;;;;;;;16.03;100.00;101468.66;5100143;28;20040;-64
2023/08/09 08:27:47;;;;;;;14.38;10.45;;;;;;;16.06;100.00;101476.31;5094702;28;20107;-65
2023/08/09 08:30:17;;;;;;;13.77;8.70;;;;;;;16.11;100.00;101491.94;5113670;28;20039;-65
2023/08/09 08:32:46;;;;;;;15.48;8.48;;;;;;;16.11;100.00;101480.94;5114795;28;20490;-66
2023/08/09 08:35:19;;;;;;;13.85;9.00;;;;;;;16.14;100.00;101486.72;5096153;28;20048;-66
2023/08/09 08:37:53;;;;;;;12.48;8.00;;;;;;;16.18;100.00;101493.25;5080667;28;20404;-66
2023/08/09 08:40:21;;;;;;;12.18;5.85;;;;;;;16.25;100.00;101481.91;5114090;28;20036;-65
2023/08/09 08:42:51;;;;;;;13.35;5.13;;;;;;;16.32;100.00;101487.91;5096379;28;20043;-66
2023/08/09 08:45:19;;;;;;;12.70;6.85;;;;;;;16.43;100.00;101494.13;5113763;28;20051;-66
2023/08/09 08:47:47;;;;;;;10.32;6.28;;;;;;;16.37;100.00;101500.78;5112824;28;20082;-66
2023/08/09 08:50:16;;;;;;;8.95;5.65;;;;;;;16.35;100.00;101501.06;5095830;28;20046;-67
2023/08/09 08:52:47;;;;;;;9.68;5.55;;;;;;;16.34;100.00;101506.88;5095944;28;20049;-66
2023/08/09 08:55:15;;;;;;;11.57;7.00;;;;;;;16.37;100.00;101507.09;5096397;28;20028;-67
2023/08/09 08:57:46;;;;;;;12.15;6.68;;;;;;;16.42;100.00;101511.72;5095689;28;20168;-67
2023/08/09 09:00:18;;;;;;;12.57;7.18;;;;;;;16.47;100.00;101506.16;5097343;28;20040;-68
2023/08/09 09:02:49;;;;;;;12.23;7.50;;;;;;;16.52;100.00;101511.63;5109220;28;20048;-66
2023/08/09 09:05:17;;;;;;;12.23;6.20;;;;;;;16.52;100.00;101510.81;5092293;28;20065;-66
2023/08/09 09:07:49;;;;;;;9.80;5.65;;;;;;;16.55;100.00;101513.00;5117779;28;20039;-65
2023/08/09 09:10:21;;;;;;;10.85;6.63;;;;;;;16.61;100.00;101511.81;5114377;28;20059;-67
2023/08/09 09:12:51;;;;;;;13.00;6.28;;;;;;;16.64;100.00;101513.16;5115528;28;20054;-67
2023/08/09 09:15:19;;;;;;;8.20;4.47;;;;;;;16.69;100.00;101524.09;5081562;28;20048;-66
2023/08/09 09:17:48;;;;;;;11.65;6.70;;;;;;;16.72;100.00;101518.03;5115012;28;20054;-67
2023/08/09 09:20:23;;;;;;;11.10;7.53;;;;;;;16.74;100.00;101524.03;5114206;28;20070;-66
2023/08/09 09:22:53;;;;;;;13.25;6.55;;;;;;;16.73;100.00;101525.16;5075107;28;20070;-67
2023/08/09 09:25:22;;;;;;;11.82;5.50;;;;;;;16.72;100.00;101529.03;5113711;28;20043;-67
2023/08/09 09:27:55;;;;;;;9.23;5.00;;;;;;;16.71;100.00;101522.69;5114699;28;20043;-67
2023/08/09 09:30:24;;;;;;;8.45;5.20;;;;;;;16.74;100.00;101529.53;5114858;28;20548;-68
2023/08/09 09:32:56;;;;;;;8.50;4.22;;;;;;;16.79;100.00;101524.84;5117598;28;20039;-67
2023/08/09 09:35:32;;;;;;;12.77;5.25;;;;;;;16.85;100.00;101520.09;5128601;28;20024;-66
2023/08/09 09:38:03;;;;;;;7.78;4.25;;;;;;;16.89;100.00;101534.09;5137571;28;20065;-62
2023/08/09 09:40:33;;;;;;;7.97;4.57;;;;;;;16.91;100.00;101537.38;5129474;28;20047;-68
2023/08/09 09:43:05;;;;;;;8.75;4.72;;;;;;;16.94;100.00;101531.28;5117755;28;20048;-67
2023/08/09 09:45:33;;;;;;;9.98;5.25;;;;;;;16.97;100.00;101533.44;5112991;28;20058;-62
2023/08/09 09:48:04;;;;;;;11.38;5.30;;;;;;;16.91;100.00;101527.19;5131538;28;20469;-66
2023/08/09 09:50:33;;;;;;;8.70;4.50;;;;;;;16.90;100.00;101528.28;5124839;28;20048;-67
2023/08/09 09:53:02;;;;;;;8.32;4.45;;;;;;;16.90;100.00;101531.03;5099393;28;20055;-66
2023/08/09 09:55:32;;;;;;;8.60;4.55;;;;;;;16.98;100.00;101530.41;5096331;28;20496;-66
2023/08/09 09:58:00;;;;;;;10.35;4.65;;;;;;;17.06;100.00;101533.63;5084102;28;20051;-69
2023/08/09 10:00:28;;;;;;;7.50;4.20;;;;;;;17.12;100.00;101524.19;5095050;28;20066;-67
2023/08/09 10:02:56;;;;;;;8.98;5.03;;;;;;;17.16;100.00;101522.47;5083404;28;20043;-67
2023/08/09 10:05:30;;;;;;;11.15;5.68;;;;;;;17.21;100.00;101525.97;5096978;28;20056;-68
2023/08/09 10:07:58;;;;;;;24.63;9.77;;;;;;;17.23;100.00;101522.94;5114120;28;20044;-67
2023/08/09 10:10:27;;;;;;;11.00;6.68;;;;;;;17.25;100.00;101523.47;5076025;28;20043;-66
2023/08/09 10:12:55;;;;;;;15.20;7.05;;;;;;;17.31;100.00;101527.78;5114083;28;20043;-66
2023/08/09 10:15:28;;;;;;;15.55;8.07;;;;;;;17.36;100.00;101519.44;5114764;28;20044;-67
2023/08/09 10:18:25;;;;;;;27.23;11.15;;;;;;;17.43;100.00;101521.81;5115347;28;20066;-66
2023/08/09 10:20:55;;;;;;;38.13;13.90;;;;;;;17.57;100.00;101519.16;5088113;28;20446;-66
2023/08/09 10:23:26;;;;;;;35.47;10.93;;;;;;;17.66;100.00;101520.94;5111526;28;20050;-66
2023/08/09 10:25:55;;;;;;;10.98;6.18;;;;;;;17.61;100.00;101521.03;4758837;28;10000222;-66
2023/08/09 10:28:45;;;;;;;11.85;6.05;;;;;;;17.66;100.00;101526.44;5110870;28;20491;-67
2023/08/09 10:31:14;;;;;;;17.67;8.13;;;;;;;17.70;100.00;101526.66;5112270;28;20032;-67
2023/08/09 10:34:06;;;;;;;9.20;5.90;;;;;;;17.67;100.00;101538.28;5109309;28;20065;-66
2023/08/09 10:36:35;;;;;;;10.93;6.63;;;;;;;17.67;100.00;101541.03;5111227;28;20051;-65
2023/08/09 10:39:13;;;;;;;9.60;5.93;;;;;;;17.68;100.00;101539.94;5093556;28;20047;-67
2023/08/09 10:42:14;;;;;;;16.25;7.55;;;;;;;17.77;100.00;101537.31;5109184;28;20054;-67
2023/08/09 10:44:42;;;;;;;23.58;9.20;;;;;;;17.84;100.00;101543.31;5056806;28;20047;-65
2023/08/09 10:47:28;;;;;;;14.38;7.95;;;;;;;17.80;100.00;101543.09;5112561;28;20047;-66
2023/08/09 10:49:59;;;;;;;10.50;7.45;;;;;;;17.84;100.00;101544.13;5097504;28;20043;-65
2023/08/09 10:52:35;;;;;;;14.57;7.55;;;;;;;17.86;100.00;101536.38;5109646;28;20040;-65
2023/08/09 10:55:18;;;;;;;16.40;7.22;;;;;;;17.92;100.00;101544.56;5082516;28;20089;-66
2023/08/09 10:57:51;;;;;;;11.50;6.63;;;;;;;17.99;100.00;101536.72;5121932;28;20046;-66
2023/08/09 11:00:20;;;;;;;13.52;7.90;;;;;;;18.08;100.00;101538.50;5112821;28;20054;-65
2023/08/09 11:02:50;;;;;;;16.35;7.65;;;;;;;18.18;100.00;101526.47;5110420;28;20050;-67
2023/08/09 11:05:18;;;;;;;16.83;7.18;;;;;;;18.30;100.00;101537.88;5120275;28;20044;-66
2023/08/09 11:07:50;;;;;;;15.40;7.18;;;;;;;18.36;100.00;101532.25;5098234;28;20095;-66
2023/08/09 11:10:37;;;;;;;13.15;7.13;;;;;;;18.24;100.00;101536.31;5108507;28;20105;-66
2023/08/09 11:13:10;;;;;;;13.05;5.70;;;;;;;18.21;100.00;101536.91;5099545;28;20122;-66
2023/08/09 11:15:38;;;;;;;12.80;7.10;;;;;;;18.20;100.00;101526.97;5085743;28;20085;-66
2023/08/09 11:18:06;;;;;;;12.90;6.60;;;;;;;18.23;100.00;101523.66;5112120;28;20052;-67
2023/08/09 11:20:34;;;;;;;14.00;6.68;;;;;;;18.34;100.00;101528.97;5114913;28;20032;-66
2023/08/09 11:23:03;;;;;;;11.23;7.15;;;;;;;18.38;100.00;101525.31;5115478;28;20085;-67